Airfield :
LOGIN :

Register | Disclaimer

   EN    FR    IT 

 










Legend :    VFR   Marginal VFR   IFR   Intensive IFR   Very Intensive IFR
Visi :
Ceiling :
>= 8 km
>= 3000ft
5 to 8 km
1000 to 3000 ft
1500m to 5 km
500 to 1000 ft
800 to 1500m
200 to 500 ft
< 800m
< 200 ft
Symbols :   Thunderstorms  Fog  Heavy snow  Heavy precipitations  Wind > 20 kt
SIGMETs :     Misc.  Thunderstorms  Icing  Turbulence  Mountain Waves  Volcanic Ashes






- Airport Elevation : 373 ft
- IATA code : OZH


UKDE - Mokraya

CURRENT METAR :
  • 011830Z 07003MPS 020V120 9999 -SHRA BKN018 BKN026CB 13/12 Q1013 R02R/290356 NOSIG

EXPIRED METARs :
  • 011800Z 06004MPS 020V100 6000 -SHRA BKN018 BKN026CB 13/12 Q1013 R02R/290356 NOSIG
  • 011730Z 06003MPS 030V110 6000 -SHRA BKN018 BKN026CB 13/12 Q1013 R02R/290356 NOSIG
  • 011700Z 06003MPS 030V110 7000 -SHRA SCT023CB BKN023 13/12 Q1013 R02R/290356 NOSIG
  • 011630Z 05003MPS 010V090 6000 -SHRA SCT029CB BKN029 13/12 Q1013 R02R/290356 TEMPO 2100 -SHRA BKN007 BKN013CB
  • 011600Z 06002MPS 010V110 4600 -SHRA BR BKN022CB BKN030 13/12 Q1013 R02R/290356 TEMPO 2100 -SHRA BKN07 BKN013CB
  • 011530Z 06002MPS 020V120 4800 -SHRA BKN022CB BKN030 14/13 Q1013 R02R/290356 NOSIG

TAF TAF UKDE
Valid from the 01 at 18:00 until the 02 at 03:00 UTC


011706Z 0118/0203 06003MPS 3000 -SHRA BR BKN007 BKN013CB
TEMPO 0118/0123 0300 -SHRA FG BKN002 BKN013CB
BECMG 0123/0201 0300 FG VV002
UKDV FIR / Europe



MET'MAP, your aeronautical weather chart ! - Copyright ORBIFLY December 2007 - Disclaimer

ORBIFLY MET'MAP TEAM :

Programming & Development : Alexandra Zaïnal
Concept & original design : Baudouin d'Aumeries
Assistance for programming : Marc-Olivier Méhu
Technical & hardware support : Manuel Goepfert

Contact : metmap@orbifly.com




SOURCES & CREDITS :

   NOAA